sensor_id;sensor_type;location;lat;lon;timestamp;pressure;altitude;pressure_sealevel;temperature;humidity
40788;BME280;26497;52.494;7.546;2022-12-18T00:02:25;102270.25;;;-0.41;57.24
40788;BME280;26497;52.494;7.546;2022-12-18T00:04:52;102272.97;;;-0.51;57.48
40788;BME280;26497;52.494;7.546;2022-12-18T00:07:19;102269.19;;;-0.68;58.02
40788;BME280;26497;52.494;7.546;2022-12-18T00:09:46;102272.53;;;-0.57;57.48
40788;BME280;26497;52.494;7.546;2022-12-18T00:12:13;102267.41;;;-0.69;57.19
40788;BME280;26497;52.494;7.546;2022-12-18T00:14:44;102261.38;;;-0.94;57.60
40788;BME280;26497;52.494;7.546;2022-12-18T00:17:11;102265.63;;;-0.94;57.62
40788;BME280;26497;52.494;7.546;2022-12-18T00:19:38;102264.84;;;-0.93;57.20
40788;BME280;26497;52.494;7.546;2022-12-18T00:22:05;102269.47;;;-1.25;57.47
40788;BME280;26497;52.494;7.546;2022-12-18T00:24:32;102269.50;;;-1.37;56.86
40788;BME280;26497;52.494;7.546;2022-12-18T00:26:59;102267.91;;;-1.46;55.52
40788;BME280;26497;52.494;7.546;2022-12-18T00:29:26;102266.09;;;-1.48;55.08
40788;BME280;26497;52.494;7.546;2022-12-18T00:31:55;102261.19;;;-1.79;55.69
40788;BME280;26497;52.494;7.546;2022-12-18T00:34:22;102275.66;;;-2.04;56.36
40788;BME280;26497;52.494;7.546;2022-12-18T00:36:49;102278.66;;;-2.10;56.46
40788;BME280;26497;52.494;7.546;2022-12-18T00:39:16;102275.91;;;-2.01;56.07
40788;BME280;26497;52.494;7.546;2022-12-18T00:41:42;102285.22;;;-2.03;55.41
40788;BME280;26497;52.494;7.546;2022-12-18T00:44:27;102282.81;;;-2.12;55.18
40788;BME280;26497;52.494;7.546;2022-12-18T00:46:55;102295.38;;;-2.17;55.32
40788;BME280;26497;52.494;7.546;2022-12-18T00:49:22;102288.53;;;-2.16;55.18
40788;BME280;26497;52.494;7.546;2022-12-18T00:51:49;102297.25;;;-2.26;54.82
40788;BME280;26497;52.494;7.546;2022-12-18T00:54:17;102293.28;;;-2.33;55.57
40788;BME280;26497;52.494;7.546;2022-12-18T00:56:44;102283.13;;;-2.42;55.54
40788;BME280;26497;52.494;7.546;2022-12-18T00:59:11;102292.50;;;-2.54;56.38
40788;BME280;26497;52.494;7.546;2022-12-18T01:01:38;102285.81;;;-2.40;55.05
40788;BME280;26497;52.494;7.546;2022-12-18T01:04:06;102280.06;;;-2.48;55.25
40788;BME280;26497;52.494;7.546;2022-12-18T01:06:35;102285.78;;;-2.52;54.80
40788;BME280;26497;52.494;7.546;2022-12-18T01:09:02;102284.81;;;-2.64;54.78
40788;BME280;26497;52.494;7.546;2022-12-18T01:11:30;102285.78;;;-2.52;54.61
40788;BME280;26497;52.494;7.546;2022-12-18T01:13:57;102278.31;;;-2.59;54.23
40788;BME280;26497;52.494;7.546;2022-12-18T01:16:24;102279.16;;;-2.71;54.22
40788;BME280;26497;52.494;7.546;2022-12-18T01:18:52;102277.88;;;-2.76;54.42
40788;BME280;26497;52.494;7.546;2022-12-18T01:21:23;102273.50;;;-2.77;54.53
40788;BME280;26497;52.494;7.546;2022-12-18T01:23:53;102258.28;;;-2.84;55.35
40788;BME280;26497;52.494;7.546;2022-12-18T01:26:20;102251.47;;;-2.84;54.94
40788;BME280;26497;52.494;7.546;2022-12-18T01:28:48;102249.25;;;-2.89;55.03
40788;BME280;26497;52.494;7.546;2022-12-18T01:31:18;102259.19;;;-2.84;54.51
40788;BME280;26497;52.494;7.546;2022-12-18T01:33:46;102260.34;;;-2.80;54.52
40788;BME280;26497;52.494;7.546;2022-12-18T01:36:18;102265.25;;;-2.83;54.31
40788;BME280;26497;52.494;7.546;2022-12-18T01:38:47;102269.63;;;-2.82;53.94
40788;BME280;26497;52.494;7.546;2022-12-18T01:41:16;102280.75;;;-2.83;52.99
40788;BME280;26497;52.494;7.546;2022-12-18T01:43:48;102289.56;;;-2.91;52.89
40788;BME280;26497;52.494;7.546;2022-12-18T01:46:17;102293.31;;;-2.88;52.58
40788;BME280;26497;52.494;7.546;2022-12-18T01:48:45;102299.53;;;-2.96;52.71
40788;BME280;26497;52.494;7.546;2022-12-18T01:51:13;102312.06;;;-3.01;52.56
40788;BME280;26497;52.494;7.546;2022-12-18T01:53:44;102307.56;;;-3.14;51.98
40788;BME280;26497;52.494;7.546;2022-12-18T01:56:18;102301.91;;;-3.20;52.13
40788;BME280;26497;52.494;7.546;2022-12-18T01:58:54;102305.03;;;-3.24;51.76
40788;BME280;26497;52.494;7.546;2022-12-18T02:01:23;102302.97;;;-3.28;52.18
40788;BME280;26497;52.494;7.546;2022-12-18T02:03:52;102294.97;;;-3.31;52.29
40788;BME280;26497;52.494;7.546;2022-12-18T02:06:24;102293.28;;;-3.31;52.43
40788;BME280;26497;52.494;7.546;2022-12-18T02:09:05;102285.53;;;-3.31;53.12
40788;BME280;26497;52.494;7.546;2022-12-18T02:11:44;102284.34;;;-3.14;52.57
40788;BME280;26497;52.494;7.546;2022-12-18T02:14:22;102288.47;;;-3.16;51.90
40788;BME280;26497;52.494;7.546;2022-12-18T02:17:01;102281.13;;;-3.21;51.29
40788;BME280;26497;52.494;7.546;2022-12-18T02:19:59;102288.00;;;-3.32;51.93
40788;BME280;26497;52.494;7.546;2022-12-18T02:22:36;102292.53;;;-3.40;51.62
40788;BME280;26497;52.494;7.546;2022-12-18T02:25:20;102297.72;;;-3.50;51.55
40788;BME280;26497;52.494;7.546;2022-12-18T02:27:52;102288.94;;;-3.42;51.72
40788;BME280;26497;52.494;7.546;2022-12-18T02:30:21;102283.25;;;-3.38;51.86
40788;BME280;26497;52.494;7.546;2022-12-18T02:32:51;102276.44;;;-3.58;51.46
40788;BME280;26497;52.494;7.546;2022-12-18T02:35:23;102279.94;;;-3.68;51.82
40788;BME280;26497;52.494;7.546;2022-12-18T02:37:51;102275.53;;;-3.69;51.61
40788;BME280;26497;52.494;7.546;2022-12-18T02:40:23;102264.31;;;-3.70;50.68
40788;BME280;26497;52.494;7.546;2022-12-18T02:42:52;102259.94;;;-3.81;51.26
40788;BME280;26497;52.494;7.546;2022-12-18T02:45:19;102255.81;;;-3.89;50.79
40788;BME280;26497;52.494;7.546;2022-12-18T02:47:49;102260.84;;;-3.91;50.71
40788;BME280;26497;52.494;7.546;2022-12-18T02:50:22;102264.06;;;-3.93;50.54
40788;BME280;26497;52.494;7.546;2022-12-18T02:53:03;102260.22;;;-3.98;51.01
40788;BME280;26497;52.494;7.546;2022-12-18T02:55:46;102264.09;;;-4.04;50.56
40788;BME280;26497;52.494;7.546;2022-12-18T02:58:26;102269.59;;;-4.09;51.29
40788;BME280;26497;52.494;7.546;2022-12-18T03:01:01;102274.41;;;-4.04;51.15
40788;BME280;26497;52.494;7.546;2022-12-18T03:03:33;102272.06;;;-4.11;51.83
40788;BME280;26497;52.494;7.546;2022-12-18T03:06:07;102273.34;;;-4.16;51.55
40788;BME280;26497;52.494;7.546;2022-12-18T03:08:40;102270.63;;;-4.18;51.64
40788;BME280;26497;52.494;7.546;2022-12-18T03:11:12;102253.00;;;-4.23;51.46
40788;BME280;26497;52.494;7.546;2022-12-18T03:13:44;102250.53;;;-4.22;51.03
40788;BME280;26497;52.494;7.546;2022-12-18T03:16:18;102268.97;;;-4.27;51.08
40788;BME280;26497;52.494;7.546;2022-12-18T03:18:49;102258.50;;;-4.29;51.85
40788;BME280;26497;52.494;7.546;2022-12-18T03:21:23;102263.66;;;-4.19;51.29
40788;BME280;26497;52.494;7.546;2022-12-18T03:23:53;102261.09;;;-4.19;51.12
40788;BME280;26497;52.494;7.546;2022-12-18T03:26:24;102274.72;;;-4.30;51.50
40788;BME280;26497;52.494;7.546;2022-12-18T03:28:59;102270.50;;;-4.30;51.65
40788;BME280;26497;52.494;7.546;2022-12-18T03:31:30;102270.50;;;-4.30;51.45
40788;BME280;26497;52.494;7.546;2022-12-18T03:34:01;102270.88;;;-4.25;51.08
40788;BME280;26497;52.494;7.546;2022-12-18T03:36:31;102264.94;;;-4.24;50.84
40788;BME280;26497;52.494;7.546;2022-12-18T03:38:58;102255.03;;;-4.30;51.29
40788;BME280;26497;52.494;7.546;2022-12-18T03:41:30;102245.38;;;-4.11;51.50
40788;BME280;26497;52.494;7.546;2022-12-18T03:44:07;102252.59;;;-3.97;51.25
40788;BME280;26497;52.494;7.546;2022-12-18T03:46:45;102259.31;;;-3.89;51.14
40788;BME280;26497;52.494;7.546;2022-12-18T03:49:23;102254.16;;;-3.89;50.76
40788;BME280;26497;52.494;7.546;2022-12-18T03:51:54;102244.34;;;-3.93;50.72
40788;BME280;26497;52.494;7.546;2022-12-18T03:54:25;102231.72;;;-3.90;50.62
40788;BME280;26497;52.494;7.546;2022-12-18T03:56:57;102250.69;;;-4.00;50.74
40788;BME280;26497;52.494;7.546;2022-12-18T03:59:26;102258.53;;;-4.08;50.87
40788;BME280;26497;52.494;7.546;2022-12-18T04:01:57;102258.94;;;-4.14;50.62
40788;BME280;26497;52.494;7.546;2022-12-18T04:04:27;102266.41;;;-4.17;50.31
40788;BME280;26497;52.494;7.546;2022-12-18T04:06:56;102258.66;;;-4.17;50.10
40788;BME280;26497;52.494;7.546;2022-12-18T04:09:24;102255.41;;;-4.25;49.72
40788;BME280;26497;52.494;7.546;2022-12-18T04:11:52;102259.28;;;-4.30;50.18
40788;BME280;26497;52.494;7.546;2022-12-18T04:14:19;102259.16;;;-4.32;49.93
40788;BME280;26497;52.494;7.546;2022-12-18T04:16:48;102253.84;;;-4.33;49.47
40788;BME280;26497;52.494;7.546;2022-12-18T04:19:15;102255.41;;;-4.35;49.74
40788;BME280;26497;52.494;7.546;2022-12-18T04:21:42;102264.41;;;-4.40;49.56
40788;BME280;26497;52.494;7.546;2022-12-18T04:24:09;102265.69;;;-4.46;49.90
40788;BME280;26497;52.494;7.546;2022-12-18T04:26:36;102267.63;;;-4.43;50.50
40788;BME280;26497;52.494;7.546;2022-12-18T04:29:04;102263.13;;;-4.35;50.77
40788;BME280;26497;52.494;7.546;2022-12-18T04:31:31;102257.13;;;-4.15;49.71
40788;BME280;26497;52.494;7.546;2022-12-18T04:36:36;102254.25;;;-4.39;50.47
40788;BME280;26497;52.494;7.546;2022-12-18T04:39:03;102251.41;;;-4.42;50.49
40788;BME280;26497;52.494;7.546;2022-12-18T04:41:30;102249.25;;;-4.17;50.05
40788;BME280;26497;52.494;7.546;2022-12-18T04:43:57;102248.75;;;-4.02;50.25
40788;BME280;26497;52.494;7.546;2022-12-18T04:46:24;102245.00;;;-4.06;49.92
40788;BME280;26497;52.494;7.546;2022-12-18T04:48:51;102242.16;;;-4.19;50.16
40788;BME280;26497;52.494;7.546;2022-12-18T04:51:18;102244.06;;;-4.27;49.77
40788;BME280;26497;52.494;7.546;2022-12-18T04:53:46;102253.22;;;-4.31;50.01
40788;BME280;26497;52.494;7.546;2022-12-18T04:56:15;102240.19;;;-4.32;50.45
40788;BME280;26497;52.494;7.546;2022-12-18T04:58:44;102247.94;;;-4.22;50.15
40788;BME280;26497;52.494;7.546;2022-12-18T05:01:13;102251.19;;;-4.14;49.84
40788;BME280;26497;52.494;7.546;2022-12-18T05:03:41;102241.78;;;-4.13;49.87
40788;BME280;26497;52.494;7.546;2022-12-18T05:06:08;102244.09;;;-4.17;50.49
40788;BME280;26497;52.494;7.546;2022-12-18T05:08:35;102250.00;;;-4.18;50.25
40788;BME280;26497;52.494;7.546;2022-12-18T05:11:06;102245.78;;;-4.17;50.59
40788;BME280;26497;52.494;7.546;2022-12-18T05:13:34;102240.63;;;-4.17;50.29
40788;BME280;26497;52.494;7.546;2022-12-18T05:16:04;102247.94;;;-4.22;49.73
40788;BME280;26497;52.494;7.546;2022-12-18T05:18:31;102241.00;;;-4.23;49.64
40788;BME280;26497;52.494;7.546;2022-12-18T05:20:58;102244.34;;;-4.24;49.47
40788;BME280;26497;52.494;7.546;2022-12-18T05:23:26;102250.91;;;-4.27;49.85
40788;BME280;26497;52.494;7.546;2022-12-18T05:25:55;102246.66;;;-4.17;49.82
40788;BME280;26497;52.494;7.546;2022-12-18T05:28:26;102251.84;;;-3.96;49.21
40788;BME280;26497;52.494;7.546;2022-12-18T05:30:55;102256.22;;;-3.85;49.02
40788;BME280;26497;52.494;7.546;2022-12-18T05:33:25;102248.06;;;-3.89;49.53
40788;BME280;26497;52.494;7.546;2022-12-18T05:35:54;102250.28;;;-4.04;50.00
40788;BME280;26497;52.494;7.546;2022-12-18T05:38:22;102249.00;;;-3.99;50.13
40788;BME280;26497;52.494;7.546;2022-12-18T05:40:50;102267.81;;;-4.00;49.64
40788;BME280;26497;52.494;7.546;2022-12-18T05:43:18;102260.84;;;-3.91;49.30
40788;BME280;26497;52.494;7.546;2022-12-18T05:45:48;102270.25;;;-3.91;49.63
40788;BME280;26497;52.494;7.546;2022-12-18T05:48:16;102268.84;;;-3.77;49.53
40788;BME280;26497;52.494;7.546;2022-12-18T05:50:45;102270.75;;;-3.64;49.17
40788;BME280;26497;52.494;7.546;2022-12-18T05:53:14;102269.63;;;-3.78;49.79
40788;BME280;26497;52.494;7.546;2022-12-18T05:55:42;102269.38;;;-3.92;49.86
40788;BME280;26497;52.494;7.546;2022-12-18T05:58:12;102264.72;;;-4.06;49.71
40788;BME280;26497;52.494;7.546;2022-12-18T06:00:45;102260.22;;;-4.09;49.54
40788;BME280;26497;52.494;7.546;2022-12-18T06:03:14;102268.44;;;-3.82;49.37
40788;BME280;26497;52.494;7.546;2022-12-18T06:05:43;102258.53;;;-3.77;49.23
40788;BME280;26497;52.494;7.546;2022-12-18T06:08:12;102270.91;;;-3.73;49.58
40788;BME280;26497;52.494;7.546;2022-12-18T06:10:40;102263.94;;;-3.64;49.41
40788;BME280;26497;52.494;7.546;2022-12-18T06:13:07;102273.22;;;-3.56;49.40
40788;BME280;26497;52.494;7.546;2022-12-18T06:15:36;102278.91;;;-3.60;48.83
40788;BME280;26497;52.494;7.546;2022-12-18T06:18:04;102290.34;;;-3.56;49.33
40788;BME280;26497;52.494;7.546;2022-12-18T06:20:32;102289.56;;;-3.55;49.09
40788;BME280;26497;52.494;7.546;2022-12-18T06:23:02;102301.09;;;-3.72;49.78
40788;BME280;26497;52.494;7.546;2022-12-18T06:25:29;102289.84;;;-3.83;49.64
40788;BME280;26497;52.494;7.546;2022-12-18T06:27:56;102293.97;;;-3.85;49.05
40788;BME280;26497;52.494;7.546;2022-12-18T06:30:23;102294.22;;;-3.92;49.26
40788;BME280;26497;52.494;7.546;2022-12-18T06:32:50;102308.03;;;-4.02;49.38
40788;BME280;26497;52.494;7.546;2022-12-18T06:35:17;102302.34;;;-4.08;49.63
40788;BME280;26497;52.494;7.546;2022-12-18T06:37:46;102303.63;;;-4.13;50.45
40788;BME280;26497;52.494;7.546;2022-12-18T06:40:13;102302.34;;;-3.98;50.28
40788;BME280;26497;52.494;7.546;2022-12-18T06:42:39;102307.63;;;-3.96;50.29
40788;BME280;26497;52.494;7.546;2022-12-18T06:45:08;102305.97;;;-3.86;50.06
40788;BME280;26497;52.494;7.546;2022-12-18T06:47:35;102306.84;;;-3.85;50.33
40788;BME280;26497;52.494;7.546;2022-12-18T06:50:03;102303.41;;;-3.75;49.83
40788;BME280;26497;52.494;7.546;2022-12-18T06:52:32;102297.06;;;-3.68;50.47
40788;BME280;26497;52.494;7.546;2022-12-18T06:55:00;102293.34;;;-3.62;50.66
40788;BME280;26497;52.494;7.546;2022-12-18T06:57:27;102282.38;;;-3.59;50.55
40788;BME280;26497;52.494;7.546;2022-12-18T06:59:54;102281.84;;;-3.55;49.69
40788;BME280;26497;52.494;7.546;2022-12-18T07:02:21;102284.31;;;-3.57;50.17
40788;BME280;26497;52.494;7.546;2022-12-18T07:04:50;102288.56;;;-3.57;50.53
40788;BME280;26497;52.494;7.546;2022-12-18T07:07:17;102286.47;;;-3.51;50.21
40788;BME280;26497;52.494;7.546;2022-12-18T07:09:44;102288.53;;;-3.47;50.08
40788;BME280;26497;52.494;7.546;2022-12-18T07:12:12;102279.66;;;-3.50;50.00
40788;BME280;26497;52.494;7.546;2022-12-18T07:14:39;102292.16;;;-3.55;50.17
40788;BME280;26497;52.494;7.546;2022-12-18T07:17:06;102286.63;;;-3.60;50.09
40788;BME280;26497;52.494;7.546;2022-12-18T07:19:34;102302.88;;;-3.61;49.94
40788;BME280;26497;52.494;7.546;2022-12-18T07:22:01;102299.78;;;-3.57;50.05
40788;BME280;26497;52.494;7.546;2022-12-18T07:24:28;102290.34;;;-3.46;50.26
40788;BME280;26497;52.494;7.546;2022-12-18T07:26:55;102283.53;;;-3.45;49.67
40788;BME280;26497;52.494;7.546;2022-12-18T07:29:23;102277.56;;;-3.34;50.08
40788;BME280;26497;52.494;7.546;2022-12-18T07:31:50;102282.44;;;-3.27;50.13
40788;BME280;26497;52.494;7.546;2022-12-18T07:34:17;102283.16;;;-3.07;49.87
40788;BME280;26497;52.494;7.546;2022-12-18T07:36:44;102278.09;;;-2.95;50.12
40788;BME280;26497;52.494;7.546;2022-12-18T07:39:11;102275.50;;;-2.95;50.31
40788;BME280;26497;52.494;7.546;2022-12-18T07:41:38;102275.63;;;-2.93;50.67
40788;BME280;26497;52.494;7.546;2022-12-18T07:44:09;102272.88;;;-2.85;50.55
40788;BME280;26497;52.494;7.546;2022-12-18T07:46:38;102265.09;;;-2.74;50.72
40788;BME280;26497;52.494;7.546;2022-12-18T07:49:05;102262.31;;;-2.65;50.79
40788;BME280;26497;52.494;7.546;2022-12-18T07:51:32;102258.66;;;-2.57;51.29
40788;BME280;26497;52.494;7.546;2022-12-18T07:53:59;102248.81;;;-2.51;50.90
40788;BME280;26497;52.494;7.546;2022-12-18T07:56:26;102256.38;;;-2.42;51.11
40788;BME280;26497;52.494;7.546;2022-12-18T07:58:54;102245.09;;;-2.32;51.48
40788;BME280;26497;52.494;7.546;2022-12-18T08:01:21;102251.50;;;-2.27;51.71
40788;BME280;26497;52.494;7.546;2022-12-18T08:03:49;102255.34;;;-2.22;51.80
40788;BME280;26497;52.494;7.546;2022-12-18T08:06:16;102249.34;;;-2.11;52.34
40788;BME280;26497;52.494;7.546;2022-12-18T08:08:43;102251.38;;;-1.95;52.14
40788;BME280;26497;52.494;7.546;2022-12-18T08:11:10;102240.28;;;-1.82;51.96
40788;BME280;26497;52.494;7.546;2022-12-18T08:13:37;102247.16;;;-1.70;52.60
40788;BME280;26497;52.494;7.546;2022-12-18T08:16:06;102245.25;;;-1.61;52.88
40788;BME280;26497;52.494;7.546;2022-12-18T08:18:35;102249.69;;;-1.48;52.54
40788;BME280;26497;52.494;7.546;2022-12-18T08:21:10;102253.19;;;-1.36;52.72
40788;BME280;26497;52.494;7.546;2022-12-18T08:23:38;102255.53;;;-1.27;53.01
40788;BME280;26497;52.494;7.546;2022-12-18T08:26:05;102261.59;;;-1.02;52.86
40788;BME280;26497;52.494;7.546;2022-12-18T08:28:32;102260.66;;;-0.91;52.81
40788;BME280;26497;52.494;7.546;2022-12-18T08:31:00;102261.78;;;-0.76;52.88
40788;BME280;26497;52.494;7.546;2022-12-18T08:33:27;102271.69;;;-0.70;53.42
40788;BME280;26497;52.494;7.546;2022-12-18T08:35:54;102267.13;;;-0.61;53.32
40788;BME280;26497;52.494;7.546;2022-12-18T08:38:22;102259.34;;;-0.49;53.73
40788;BME280;26497;52.494;7.546;2022-12-18T08:40:49;102248.56;;;-0.30;53.67
40788;BME280;26497;52.494;7.546;2022-12-18T08:43:16;102227.78;;;-0.18;53.57
40788;BME280;26497;52.494;7.546;2022-12-18T08:46:01;102233.63;;;-0.20;54.42
40788;BME280;26497;52.494;7.546;2022-12-18T08:48:28;102226.69;;;-0.08;54.29
40788;BME280;26497;52.494;7.546;2022-12-18T08:50:55;102225.81;;;0.05;54.35
40788;BME280;26497;52.494;7.546;2022-12-18T08:53:23;102233.34;;;0.14;54.70
40788;BME280;26497;52.494;7.546;2022-12-18T08:55:51;102223.00;;;0.27;54.65
40788;BME280;26497;52.494;7.546;2022-12-18T08:58:18;102228.59;;;0.34;54.64
40788;BME280;26497;52.494;7.546;2022-12-18T09:00:45;102227.00;;;0.36;54.64
40788;BME280;26497;52.494;7.546;2022-12-18T09:03:12;102226.50;;;0.41;54.86
40788;BME280;26497;52.494;7.546;2022-12-18T09:05:40;102219.63;;;0.55;54.92
40788;BME280;26497;52.494;7.546;2022-12-18T09:08:07;102219.03;;;0.60;55.22
40788;BME280;26497;52.494;7.546;2022-12-18T09:10:41;102219.59;;;0.69;54.81
40788;BME280;26497;52.494;7.546;2022-12-18T09:13:10;102224.19;;;0.73;54.92
40788;BME280;26497;52.494;7.546;2022-12-18T09:15:41;102232.59;;;0.69;55.10
40788;BME280;26497;52.494;7.546;2022-12-18T09:18:09;102232.00;;;0.73;55.25
40788;BME280;26497;52.494;7.546;2022-12-18T09:20:36;102241.28;;;0.83;55.32
40788;BME280;26497;52.494;7.546;2022-12-18T09:23:03;102247.09;;;0.92;55.14
40788;BME280;26497;52.494;7.546;2022-12-18T09:25:31;102239.97;;;1.03;55.55
40788;BME280;26497;52.494;7.546;2022-12-18T09:28:04;102237.34;;;1.16;55.41
40788;BME280;26497;52.494;7.546;2022-12-18T09:30:32;102235.44;;;1.27;55.57
40788;BME280;26497;52.494;7.546;2022-12-18T09:33:00;102238.78;;;1.40;55.88
40788;BME280;26497;52.494;7.546;2022-12-18T09:35:27;102246.97;;;1.46;55.89
40788;BME280;26497;52.494;7.546;2022-12-18T09:37:54;102251.13;;;1.57;56.04
40788;BME280;26497;52.494;7.546;2022-12-18T09:40:25;102253.00;;;1.73;55.83
40788;BME280;26497;52.494;7.546;2022-12-18T09:42:57;102252.81;;;1.70;55.91
40788;BME280;26497;52.494;7.546;2022-12-18T09:45:27;102255.97;;;1.80;55.73
40788;BME280;26497;52.494;7.546;2022-12-18T09:47:57;102256.44;;;1.87;55.98
40788;BME280;26497;52.494;7.546;2022-12-18T09:50:29;102242.28;;;1.97;56.12
40788;BME280;26497;52.494;7.546;2022-12-18T09:53:23;102237.09;;;2.12;56.35
40788;BME280;26497;52.494;7.546;2022-12-18T09:55:52;102221.09;;;2.21;56.31
40788;BME280;26497;52.494;7.546;2022-12-18T09:58:28;102201.00;;;2.33;56.17
40788;BME280;26497;52.494;7.546;2022-12-18T10:00:58;102185.72;;;2.40;55.99
40788;BME280;26497;52.494;7.546;2022-12-18T10:03:25;102186.34;;;2.50;55.81
40788;BME280;26497;52.494;7.546;2022-12-18T10:06:01;102174.84;;;2.47;56.16
40788;BME280;26497;52.494;7.546;2022-12-18T10:08:37;102171.25;;;2.60;56.23
40788;BME280;26497;52.494;7.546;2022-12-18T10:11:32;102176.59;;;2.78;56.95
40788;BME280;26497;52.494;7.546;2022-12-18T10:14:09;102179.75;;;3.04;57.18
40788;BME280;26497;52.494;7.546;2022-12-18T10:16:49;102181.31;;;3.33;58.56
40788;BME280;26497;52.494;7.546;2022-12-18T10:19:39;102186.09;;;3.75;60.18
40788;BME280;26497;52.494;7.546;2022-12-18T10:22:19;102170.38;;;4.08;59.99
40788;BME280;26497;52.494;7.546;2022-12-18T10:24:54;102180.28;;;4.32;60.02
40788;BME280;26497;52.494;7.546;2022-12-18T10:27:25;102185.34;;;4.47;60.00
40788;BME280;26497;52.494;7.546;2022-12-18T10:29:53;102180.50;;;4.73;60.79
40788;BME280;26497;52.494;7.546;2022-12-18T10:32:24;102182.69;;;5.01;61.14
40788;BME280;26497;52.494;7.546;2022-12-18T10:34:54;102169.38;;;5.35;61.46
40788;BME280;26497;52.494;7.546;2022-12-18T10:37:23;102171.34;;;5.40;60.10
40788;BME280;26497;52.494;7.546;2022-12-18T10:40:09;102156.00;;;5.48;59.31
40788;BME280;26497;52.494;7.546;2022-12-18T10:42:37;102148.34;;;5.33;57.96
40788;BME280;26497;52.494;7.546;2022-12-18T10:45:14;102147.13;;;5.05;57.47
40788;BME280;26497;52.494;7.546;2022-12-18T10:47:46;102140.66;;;4.97;57.03
40788;BME280;26497;52.494;7.546;2022-12-18T10:50:28;102137.44;;;4.84;57.06
40788;BME280;26497;52.494;7.546;2022-12-18T10:52:57;102137.34;;;4.63;57.01
40788;BME280;26497;52.494;7.546;2022-12-18T10:55:32;102140.03;;;4.47;56.25
40788;BME280;26497;52.494;7.546;2022-12-18T10:58:21;102132.34;;;4.32;56.36
40788;BME280;26497;52.494;7.546;2022-12-18T11:01:08;102121.06;;;4.15;55.48
40788;BME280;26497;52.494;7.546;2022-12-18T11:03:38;102132.09;;;4.09;55.46
40788;BME280;26497;52.494;7.546;2022-12-18T11:06:09;102129.13;;;4.01;55.63
40788;BME280;26497;52.494;7.546;2022-12-18T11:08:37;102129.78;;;3.97;55.59
40788;BME280;26497;52.494;7.546;2022-12-18T11:11:14;102118.88;;;4.06;55.91
40788;BME280;26497;52.494;7.546;2022-12-18T11:13:58;102116.88;;;4.18;55.80
40788;BME280;26497;52.494;7.546;2022-12-18T11:16:27;102114.56;;;4.24;56.01
40788;BME280;26497;52.494;7.546;2022-12-18T11:19:30;102110.09;;;4.40;56.16
40788;BME280;26497;52.494;7.546;2022-12-18T11:21:59;102096.31;;;4.42;55.56
40788;BME280;26497;52.494;7.546;2022-12-18T11:24:31;102088.63;;;4.46;55.50
40788;BME280;26497;52.494;7.546;2022-12-18T11:27:01;102091.44;;;4.50;55.35
40788;BME280;26497;52.494;7.546;2022-12-18T11:29:34;102091.00;;;4.41;55.47
40788;BME280;26497;52.494;7.546;2022-12-18T11:32:29;102080.09;;;4.50;55.50
40788;BME280;26497;52.494;7.546;2022-12-18T11:35:04;102068.88;;;4.52;55.35
40788;BME280;26497;52.494;7.546;2022-12-18T11:37:38;102068.81;;;4.51;55.13
40788;BME280;26497;52.494;7.546;2022-12-18T11:40:11;102078.88;;;4.61;55.59
40788;BME280;26497;52.494;7.546;2022-12-18T11:42:47;102081.06;;;4.71;55.17
40788;BME280;26497;52.494;7.546;2022-12-18T11:45:27;102090.06;;;4.58;55.47
40788;BME280;26497;52.494;7.546;2022-12-18T11:48:01;102086.16;;;4.68;56.01
40788;BME280;26497;52.494;7.546;2022-12-18T11:50:41;102078.00;;;4.80;55.20
40788;BME280;26497;52.494;7.546;2022-12-18T11:53:11;102068.72;;;4.87;55.77
40788;BME280;26497;52.494;7.546;2022-12-18T11:55:47;102072.66;;;4.97;55.73
40788;BME280;26497;52.494;7.546;2022-12-18T11:58:27;102056.41;;;5.04;55.32
40788;BME280;26497;52.494;7.546;2022-12-18T12:01:10;102053.03;;;5.07;54.85
40788;BME280;26497;52.494;7.546;2022-12-18T12:04:22;102054.81;;;5.08;53.61
40788;BME280;26497;52.494;7.546;2022-12-18T12:07:03;102057.28;;;4.85;54.00
40788;BME280;26497;52.494;7.546;2022-12-18T12:09:40;102062.25;;;4.98;54.25
40788;BME280;26497;52.494;7.546;2022-12-18T12:12:30;102049.53;;;5.06;54.07
40788;BME280;26497;52.494;7.546;2022-12-18T12:15:20;102043.88;;;5.16;54.00
40788;BME280;26497;52.494;7.546;2022-12-18T12:17:55;102047.47;;;5.19;53.91
40788;BME280;26497;52.494;7.546;2022-12-18T12:20:42;102049.25;;;5.20;54.35
40788;BME280;26497;52.494;7.546;2022-12-18T12:23:21;102038.66;;;5.16;54.08
40788;BME280;26497;52.494;7.546;2022-12-18T12:25:56;102031.78;;;5.19;53.97
40788;BME280;26497;52.494;7.546;2022-12-18T12:28:39;102025.63;;;5.18;53.70
40788;BME280;26497;52.494;7.546;2022-12-18T12:31:23;102015.16;;;5.18;54.07
40788;BME280;26497;52.494;7.546;2022-12-18T12:34:01;102009.81;;;5.15;53.86
40788;BME280;26497;52.494;7.546;2022-12-18T12:36:39;101991.50;;;5.15;53.67
40788;BME280;26497;52.494;7.546;2022-12-18T12:39:14;101982.97;;;4.99;53.43
40788;BME280;26497;52.494;7.546;2022-12-18T12:41:45;101979.41;;;4.97;53.55
40788;BME280;26497;52.494;7.546;2022-12-18T12:44:35;101977.34;;;4.90;53.07
40788;BME280;26497;52.494;7.546;2022-12-18T12:47:13;101964.41;;;4.93;53.83
40788;BME280;26497;52.494;7.546;2022-12-18T12:49:41;101969.78;;;4.96;54.29
40788;BME280;26497;52.494;7.546;2022-12-18T12:52:20;101974.53;;;5.05;53.90
40788;BME280;26497;52.494;7.546;2022-12-18T12:54:53;101977.19;;;5.07;53.83
40788;BME280;26497;52.494;7.546;2022-12-18T12:57:27;101985.19;;;5.10;53.82
40788;BME280;26497;52.494;7.546;2022-12-18T13:00:02;101971.66;;;4.99;53.29
40788;BME280;26497;52.494;7.546;2022-12-18T13:02:37;101963.44;;;4.91;53.16
40788;BME280;26497;52.494;7.546;2022-12-18T13:05:16;101954.03;;;4.95;52.73
40788;BME280;26497;52.494;7.546;2022-12-18T13:07:51;101946.31;;;4.98;53.28
40788;BME280;26497;52.494;7.546;2022-12-18T13:10:33;101944.13;;;4.87;53.27
40788;BME280;26497;52.494;7.546;2022-12-18T13:13:02;101935.34;;;4.85;53.85
40788;BME280;26497;52.494;7.546;2022-12-18T13:15:35;101929.59;;;4.94;53.62
40788;BME280;26497;52.494;7.546;2022-12-18T13:18:18;101919.69;;;4.87;52.44